Chicken, AK (99732)

7:51 PM AKDT on August 29, 2014 (GMT -0800)
Nabesna | Change Station
CLOSE
Current Station
Airport
Location: Nabesna,
Elevation: 2877 ft
Nearby Weather Stations

Elev 2877 ft 62.40 °N, 143.00 °W | Updated 1 hour ago

Light Rain
Light Rain
52 °F
Feels Like 52 °F
N
9
Wind Variable Wind from North

Today
High -- | Low -- °F
--% Chance of Precip.
Yesterday
High -- | Low -- °F
Precip. -- in
6:04 AM 8:52 PM
Waxing Crescent, 18% visible
Pressure 29.48 in
Visibility 7.0 miles
Clouds Scattered Clouds 600 ft
Mostly Cloudy 3000 ft
Overcast 5000 ft
Dew Point 43 °F
Humidity 71%
Rainfall 0.00 in
Snow Depth Not available.
UV 0 out of 12
Pollen Not available.
Air Quality Not available.
Flu Activity Not available.
METAR PABN 300245Z 36008KT 7SM -RA VCFG SCT006 BKN030 OVC050 11/06 A2948 RMK VCFG ALQDS MAX 16.0 NOSPECI LAST

More Conditions Fewer Conditions

Pressure 29.48 in
Visibility 7.0 miles
Clouds Scattered Clouds 600 ft
Mostly Cloudy 3000 ft
Overcast 5000 ft
Dew Point 43 °F
Humidity 71%
Rainfall 0.00 in
Snow Depth Not available.
UV 0 out of 12
Pollen Not available.
Air Quality Not available.
Flu Activity Not available.
METAR PABN 300245Z 36008KT 7SM -RA VCFG SCT006 BKN030 OVC050 11/06 A2948 RMK VCFG ALQDS MAX 16.0 NOSPECI LAST

More Conditions Fewer Conditions

10-Day Weather Forecast

Almanac

Astronomy

Aug. 29, 2014 Rise Set
Actual Time 6:04 AM AKDT 8:52 PM AKDT
Civil Twilight 5:10 AM AKDT 9:46 PM AKDT
Nautical Twilight 3:53 AM AKDT 11:01 PM AKDT
Astronomical Twilight 2:02 AM AKDT 12:56 AM AKDT
Moon 11:36 AM AKDT (8/29) 9:15 PM AKDT (8/29)
Length of Visible Light 16h 36m
Length of Day
14h 48m
Tomorrow will be 6m 25s shorter.
Waxing Crescent, 18% of the Moon is Illuminated
Today
Waxing Crescent
Sep 2
First Quarter
Sep 8
Full
Sep 15
Last Quarter
Sep 24
New

Today's Extremes

State Highs State Lows

Community

WunderPhotos

Upload Photos

1,748,437 photos uploaded!

Nearby

Snow Depth

Station Depth Elevation
Granite Creek 0 in 1240 ft
Upper Chena 1 in 2850 ft
Munson Ridge 1 in 3100 ft
Monument Creek 0 in 1850 ft
Eagle Summit 1 in 3650 ft

Earthquake Activity

City Distance Mag. Time & Date
No recent earthquake activity has been reported nearby.
Minimum magnitude displayed is 2.5.

Coastal Water Temperatures

Place Temperature
No Stations Reporting

Nearby Weather Stations